Terminal Aerodrome Forecast
Issued by NWS

Home | Current Version | Previous Version | Graphics & Text | Print | Product List | Glossary On
Versions: 1 2 3 4 5 6 7 8 9 10 11 12 13 14
000
FTUS43 KICT 222326
TAFSLN
TAF
KSLN 222326Z 2300/2324 22009KT P6SM BKN080
     FM230200 22008KT P6SM VCTS BKN120CB
     FM230600 30007KT P6SM VCSH OVC040
     FM230900 36011KT P6SM OVC035
     FM231500 34014G22KT P6SM BKN050
     FM231700 34011KT P6SM VCSH BKN050=

USA.gov is the U.S. government's official web portal to all federal, state and local government web resources and services.